Airfield :
LOGIN :

Register | Disclaimer

   EN    FR    IT 

 










Legend :    VFR   Marginal VFR   IFR   Intensive IFR   Very Intensive IFR
Visi :
Ceiling :
>= 8 km
>= 3000ft
5 to 8 km
1000 to 3000 ft
1500m to 5 km
500 to 1000 ft
800 to 1500m
200 to 500 ft
< 800m
< 200 ft
Symbols :   Thunderstorms  Fog  Heavy snow  Heavy precipitations  Wind > 20 kt
SIGMETs :     Misc.  Thunderstorms  Icing  Turbulence  Mountain Waves  Volcanic Ashes






- Airport Elevation : 333 ft


LIPL - Ghedi Brescia (Mil)

CURRENT METAR :
  • 282055Z 04002KT 6000 NSC 06/05 Q1017 RMK BKN BKN100 VIS MIN 6000 WIND THR31 05002KT WIND THR13 04002KT WHT

EXPIRED METARs :
  • 281955Z 05003KT 6000 NSC 06/05 Q1016
  • 281855Z 09001KT 7000 SCT070 06/05 Q1016 RMK BKN SCT150 VIS MIN 7000 WIND THR31 09002KT WIND THR13 06001KT WHT

TAF TAF LIPL
Valid from the 28 at 21:00 until the 29 at 06:00 UTC


282000Z 2821/2906 06005KT 5000 BR BKN050
TEMPO 2823/2906 3000 RA BR BKN030



MET'MAP, your aeronautical weather chart ! - Copyright ORBIFLY December 2007 - Disclaimer

ORBIFLY MET'MAP TEAM :

Programming & Development : Alexandra Zaïnal
Original concept : Baudouin d'Aumeries
Technical & hardware support : Manuel Goepfert
Assistance : Marc-Olivier Méhu




SOURCES & CREDITS :

   NOAA